Terminal Aerodrome Forecast
Issued by NWS

Home | Current Version | Previous Version | Text Only | Print | Product List | Glossary On
Versions: 1 2 3 4 5 6 7 8 9 10 11 12 13 14 15
477
FTUS46 KMTR 100231 AAA
TAFSNS
TAF AMD
KSNS 100231Z 1003/1024 12006KT P6SM SCT010 BKN030
      TEMPO 1003/1006 BKN010 OVC030
     FM100600 14011KT P6SM -RA OVC010
     FM101500 12015KT 5SM -RA BR OVC015=

USA.gov is the U.S. government's official web portal to all federal, state and local government web resources and services.